createdAt,value
2016-10-24T09:29:54.510Z,99.99
2016-10-24T09:30:54.656Z,99.99
2016-10-24T09:31:54.353Z,99.99
2016-10-24T09:32:54.346Z,99.99
2016-10-24T09:33:54.345Z,99.99
2016-10-24T09:34:54.339Z,99.99
2016-10-24T09:35:54.332Z,99.99
2016-10-24T09:36:54.324Z,99.99
2016-10-24T09:37:54.327Z,99.99
2016-10-24T09:38:54.319Z,99.99
2016-10-24T09:39:54.316Z,99.99
2016-10-24T09:40:54.317Z,99.99
2016-10-24T09:41:54.314Z,99.99
2016-10-24T09:42:54.301Z,99.76
2016-10-24T09:43:54.300Z,99.76
2016-10-24T09:44:54.292Z,99.57
2016-10-24T09:45:54.290Z,99.38
2016-10-24T09:46:54.286Z,98.61
2016-10-24T09:47:54.282Z,98.71
2016-10-24T09:48:54.274Z,97.89
2016-10-24T09:49:54.271Z,95.61
2016-10-24T09:50:54.270Z,95.22
2016-10-24T09:51:54.269Z,95.84
2016-10-24T09:52:54.256Z,94.7
2016-10-24T09:53:55.402Z,94.31
2016-10-24T09:54:54.249Z,94.41
2016-10-24T09:55:55.101Z,93.98
2016-10-24T09:56:54.771Z,93.98
2016-10-24T09:57:54.365Z,94.56
2016-10-24T09:58:54.234Z,94.93
2016-10-24T09:59:54.223Z,95.32
2016-10-24T10:00:54.222Z,95.84
2016-10-24T10:01:54.217Z,96.51
2016-10-24T10:02:54.675Z,96.98
2016-10-24T10:03:54.212Z,97.52
2016-10-24T10:04:55.473Z,98.08
2016-10-24T10:05:54.199Z,98.42
2016-10-24T10:06:54.189Z,97.75
2016-10-24T10:07:54.191Z,97.47
2016-10-24T10:08:54.220Z,97.47
2016-10-24T10:09:54.286Z,97.75
2016-10-24T10:10:54.176Z,98.33
2016-10-24T10:11:54.167Z,98.04
2016-10-24T10:12:54.166Z,98.18
2016-10-24T10:13:54.157Z,98.57
2016-10-24T10:14:54.156Z,98.61
2016-10-24T10:15:54.156Z,98.43
2016-10-24T10:16:54.145Z,98.61
2016-10-24T10:17:54.144Z,98.33
2016-10-24T10:18:54.145Z,98.14
2016-10-24T10:19:54.135Z,98.61
2016-10-24T10:20:54.130Z,97.95
2016-10-24T10:21:54.130Z,97.75
2016-10-24T10:22:54.131Z,97.75
2016-10-24T10:23:54.122Z,97.13
2016-10-24T10:24:54.119Z,96.66
2016-10-24T10:25:54.118Z,95.98
2016-10-24T10:26:54.106Z,96.27
2016-10-24T10:27:54.102Z,96.13
2016-10-24T10:28:54.101Z,96.18
2016-10-24T10:29:54.097Z,95.7
2016-10-24T10:30:54.394Z,95.56
2016-10-24T10:31:54.091Z,95.84
2016-10-24T10:32:54.434Z,96.47
2016-10-24T10:33:54.329Z,96.66
2016-10-24T10:34:54.073Z,96.61
2016-10-24T10:35:54.073Z,96.75
2016-10-24T10:36:54.070Z,96.66
2016-10-24T10:38:08.977Z,96.84
2016-10-24T10:38:54.710Z,97.13
2016-10-24T10:39:54.254Z,97.23
2016-10-24T10:40:54.054Z,97.33
2016-10-24T10:41:54.051Z,97.13
2016-10-24T10:42:54.044Z,97.13
2016-10-24T10:43:54.039Z,97.23
2016-10-24T10:44:54.035Z,97.23
2016-10-24T10:45:54.030Z,96.94
2016-10-24T10:46:54.032Z,96.84
2016-10-24T10:47:54.022Z,96.27
2016-10-24T10:48:54.014Z,95.79
2016-10-24T10:49:54.016Z,96.84
2016-10-24T10:50:54.010Z,96.27
2016-10-24T10:51:54.002Z,96.08
2016-10-24T10:52:54.003Z,95.22
2016-10-24T10:53:54.153Z,94.98
2016-10-24T10:54:53.992Z,94.7
2016-10-24T10:55:53.990Z,94.36
2016-10-24T10:56:53.979Z,93.21
2016-10-24T10:57:53.977Z,92.12
2016-10-24T10:58:54.019Z,91.36
2016-10-24T10:59:53.972Z,91.64
2016-10-24T11:00:53.961Z,92.46
2016-10-24T11:01:53.959Z,92.46
2016-10-24T11:02:53.954Z,92.93
2016-10-24T11:03:53.948Z,92.17
2016-10-24T11:04:53.945Z,90.93
2016-10-24T11:05:53.942Z,91.27
2016-10-24T11:06:53.938Z,91.64
2016-10-24T11:07:53.929Z,92.98
2016-10-24T11:08:53.925Z,92.69
2016-10-24T11:09:53.921Z,92.98
2016-10-24T11:10:53.918Z,93.55
2016-10-24T11:11:55.290Z,93.27
2016-10-24T11:12:55.216Z,93.27
2016-10-24T11:13:53.901Z,93.55
2016-10-24T11:14:53.892Z,93.36
2016-10-24T11:15:53.888Z,92.79
2016-10-24T11:16:53.886Z,93.27
2016-10-24T11:17:53.881Z,92.41
2016-10-24T11:18:53.874Z,92.41
2016-10-24T11:19:53.864Z,92.98
2016-10-24T11:20:54.444Z,93.46
2016-10-24T11:21:54.980Z,93.65
2016-10-24T11:22:54.082Z,93.27
2016-10-24T11:23:53.842Z,92.79
2016-10-24T11:24:54.290Z,92.08
2016-10-24T11:25:53.833Z,92.36
2016-10-24T11:26:53.829Z,92.08
2016-10-24T11:27:53.821Z,92.55
2016-10-24T11:28:53.812Z,92.27
2016-10-24T11:29:53.815Z,92.27
2016-10-24T11:30:53.802Z,92.27
2016-10-24T11:31:53.799Z,93.22
2016-10-24T11:32:53.795Z,93.6
2016-10-24T11:33:54.086Z,93.22
2016-10-24T11:34:53.781Z,93.51
2016-10-24T11:35:53.776Z,93.6
2016-10-24T11:36:53.767Z,93.03
2016-10-24T11:37:53.764Z,92.74
2016-10-24T11:38:53.758Z,93.41
2016-10-24T11:39:53.751Z,93.22
2016-10-24T11:40:53.747Z,93.51
2016-10-24T11:41:53.735Z,93.88
2016-10-24T11:42:53.728Z,94.08
2016-10-24T11:43:53.726Z,94.08
2016-10-24T11:44:53.718Z,93.51
2016-10-24T11:45:53.713Z,93.41
2016-10-24T11:47:08.622Z,92.84
2016-10-24T11:47:54.700Z,93.32
2016-10-24T11:49:08.957Z,93.03
2016-10-24T11:49:54.242Z,94.08
2016-10-24T11:50:54.333Z,94.37
2016-10-24T11:51:53.678Z,93.79
2016-10-24T11:52:53.672Z,93.51
2016-10-24T11:53:53.668Z,93.6
2016-10-24T11:54:53.758Z,93.03
2016-10-24T11:56:53.845Z,91.94
2016-10-24T11:57:53.635Z,92.17
2016-10-24T11:58:53.631Z,92.13
2016-10-24T11:59:53.623Z,92.32
2016-10-24T12:00:53.622Z,92.41
2016-10-24T12:01:53.615Z,92.6
2016-10-24T12:02:53.605Z,92.89
2016-10-24T12:03:53.603Z,93.17
2016-10-24T12:04:53.595Z,93.46
2016-10-24T12:05:53.588Z,93.08
2016-10-24T12:06:53.581Z,93.98
2016-10-24T12:07:53.579Z,93.88
2016-10-24T12:08:53.566Z,93.88
2016-10-24T12:09:53.697Z,95.12
2016-10-24T12:10:53.551Z,94.93
2016-10-24T12:11:53.553Z,94.93
2016-10-24T12:12:53.538Z,95.32
2016-10-24T12:13:53.540Z,95.32
2016-10-24T12:14:53.528Z,94.93
2016-10-24T12:15:53.535Z,94.84
2016-10-24T12:16:53.522Z,94.84
2016-10-24T12:17:53.513Z,94.65
2016-10-24T12:18:53.504Z,95.12
2016-10-24T12:19:53.500Z,95.17
2016-10-24T12:20:53.493Z,94.98
2016-10-24T12:21:53.486Z,94.98
2016-10-24T12:22:53.494Z,93.93
2016-10-24T12:23:53.476Z,93.36
2016-10-24T12:24:53.465Z,94.32
2016-10-24T12:25:53.463Z,93.17
2016-10-24T12:26:53.455Z,92.79
2016-10-24T12:27:53.446Z,93.27
2016-10-24T12:28:53.443Z,93.46
2016-10-24T12:29:54.743Z,93.74
2016-10-24T12:30:53.429Z,93.84
2016-10-24T12:31:53.422Z,93.65
2016-10-24T12:32:53.455Z,93.93
2016-10-24T12:33:54.314Z,93.08
2016-10-24T12:34:53.415Z,92.98
2016-10-24T12:35:53.406Z,92.69
2016-10-24T12:36:53.393Z,93.36
2016-10-24T12:37:53.390Z,93.46
2016-10-24T12:38:55.547Z,93.17
2016-10-24T12:40:53.376Z,93.36
2016-10-24T12:41:53.678Z,94.17
2016-10-24T12:42:53.359Z,94.27
2016-10-24T12:43:54.107Z,94.65
2016-10-24T12:44:53.353Z,94.93
2016-10-24T12:45:53.349Z,94.93
2016-10-24T12:46:53.340Z,94.93
2016-10-24T12:47:53.335Z,94.07
2016-10-24T12:48:53.325Z,94.27
2016-10-24T12:49:53.334Z,93.79
2016-10-24T12:50:53.321Z,94.46
2016-10-24T12:51:53.309Z,94.46
2016-10-24T12:52:53.305Z,94.36
2016-10-24T12:53:53.302Z,94.36
2016-10-24T12:54:53.296Z,94.36
2016-10-24T12:55:53.288Z,92.74
2016-10-24T12:56:53.288Z,91.88
2016-10-24T12:57:53.280Z,91.83
2016-10-24T12:58:53.276Z,91.27
2016-10-24T12:59:53.276Z,91.64
2016-10-24T13:00:53.261Z,92.41
2016-10-24T13:01:53.252Z,92.79
2016-10-24T13:02:53.252Z,91.93
2016-10-24T13:03:53.242Z,91.83
2016-10-24T13:05:54.180Z,91.64
2016-10-24T13:06:53.225Z,91.27
2016-10-24T13:07:54.020Z,91.17
2016-10-24T13:08:53.215Z,91.55
2016-10-24T13:09:53.556Z,91.17
2016-10-24T13:10:53.503Z,91.64
2016-10-24T13:11:53.198Z,91.27
2016-10-24T13:12:53.195Z,91.07
2016-10-24T13:13:53.185Z,90.93
2016-10-24T13:15:54.380Z,91.79
2016-10-24T13:16:53.169Z,90.93
2016-10-24T13:17:53.564Z,92.36
2016-10-24T13:18:53.409Z,91.79
2016-10-24T13:19:53.151Z,92.17
2016-10-24T13:20:53.195Z,92.46
2016-10-24T13:21:53.441Z,92.36
2016-10-24T13:22:53.135Z,92.08
2016-10-24T13:23:53.424Z,92.46
2016-10-24T13:24:53.120Z,91.88
2016-10-24T13:25:53.114Z,92.46
2016-10-24T13:26:53.108Z,92.74
2016-10-24T13:27:53.101Z,93.7
2016-10-24T13:28:53.399Z,93.32
2016-10-24T13:29:53.092Z,93.51
2016-10-24T13:30:53.138Z,93.51
2016-10-24T13:31:53.080Z,93.88
2016-10-24T13:32:53.069Z,93.51
2016-10-24T13:33:53.067Z,93.7
2016-10-24T13:34:53.057Z,94.46
2016-10-24T13:35:53.056Z,93.7
2016-10-24T13:36:53.045Z,94.74
2016-10-24T13:37:53.039Z,94.65
2016-10-24T13:38:53.035Z,95.12
2016-10-24T13:39:53.333Z,95.98
2016-10-24T13:40:53.018Z,95.98
2016-10-24T13:41:53.008Z,95.79
2016-10-24T13:42:53.007Z,96.65
2016-10-24T13:43:53.004Z,96.36
2016-10-24T13:44:52.994Z,96.56
2016-10-24T13:45:52.984Z,96.36
2016-10-24T13:46:52.977Z,96.12
2016-10-24T13:47:52.973Z,96.98
2016-10-24T13:48:52.982Z,96.6
2016-10-24T13:49:52.991Z,96.8
2016-10-24T13:50:52.949Z,97.17
2016-10-24T13:51:52.947Z,97.51
2016-10-24T13:52:52.942Z,97.89
2016-10-24T13:53:52.967Z,98.55
2016-10-24T13:54:53.250Z,98.27
2016-10-24T13:55:53.118Z,98.36
2016-10-24T13:56:52.910Z,98.36
2016-10-24T13:57:52.905Z,98.94
2016-10-24T13:58:54.519Z,98.94
2016-10-24T13:59:52.888Z,99.51
2016-10-24T14:00:53.334Z,99.51
2016-10-24T14:01:53.052Z,99.89
2016-10-24T14:02:52.865Z,99.98
2016-10-24T14:03:52.948Z,99.99
2016-10-24T14:04:53.065Z,99.99
2016-10-24T14:05:52.850Z,99.99
2016-10-24T14:06:52.842Z,99.99
2016-10-24T14:07:52.829Z,99.99
2016-10-24T14:08:52.825Z,99.99
2016-10-24T14:09:52.818Z,99.99
2016-10-24T14:10:52.806Z,99.99
2016-10-24T14:11:52.806Z,99.99
2016-10-24T14:12:52.796Z,99.99
2016-10-24T14:13:52.794Z,99.99
2016-10-24T14:14:52.783Z,99.99
2016-10-24T14:15:52.776Z,99.99
2016-10-24T14:16:52.763Z,99.99
2016-10-24T14:17:52.755Z,99.99
2016-10-24T14:18:52.752Z,99.99
2016-10-24T14:19:52.739Z,99.99
2016-10-24T14:20:52.735Z,99.99
2016-10-24T14:21:52.732Z,99.99
2016-10-24T14:22:53.021Z,99.99
2016-10-24T14:23:52.865Z,99.99
2016-10-24T14:24:52.706Z,99.99
2016-10-24T14:25:53.036Z,99.99
2016-10-24T14:26:52.688Z,99.99
2016-10-24T14:27:52.685Z,99.99
2016-10-24T14:28:52.671Z,99.99
2016-10-24T14:29:52.662Z,99.99
2016-10-24T14:30:52.659Z,99.99
2016-10-24T14:31:52.654Z,99.99
2016-10-24T14:32:53.490Z,99.99
2016-10-24T14:33:52.639Z,99.99
2016-10-24T14:34:52.628Z,99.99
2016-10-24T14:35:53.068Z,99.99
2016-10-24T14:36:52.608Z,99.99
2016-10-24T14:37:53.158Z,99.99
2016-10-24T14:38:52.597Z,99.99
2016-10-24T14:39:52.585Z,99.99
2016-10-24T14:40:52.584Z,99.99
2016-10-24T14:41:52.575Z,99.99
2016-10-24T14:42:52.569Z,99.99
2016-10-24T14:43:52.553Z,99.99
2016-10-24T14:44:52.544Z,99.99
2016-10-24T14:45:52.545Z,99.99
2016-10-24T14:46:52.534Z,99.99
2016-10-24T14:47:52.525Z,99.99
2016-10-24T14:48:52.515Z,99.99
2016-10-24T14:49:52.508Z,99.99
2016-10-24T14:50:52.502Z,99.99
2016-10-24T14:51:52.497Z,99.99
2016-10-24T14:52:52.484Z,99.99
2016-10-24T14:53:52.483Z,99.99
2016-10-24T14:54:52.502Z,99.99
2016-10-24T14:55:52.464Z,99.99
2016-10-24T14:56:52.455Z,99.99
2016-10-24T14:57:52.442Z,99.99
2016-10-24T14:58:52.440Z,99.99
2016-10-24T14:59:52.430Z,99.99
2016-10-24T15:00:52.418Z,99.99
2016-10-24T15:01:52.422Z,99.99
2016-10-24T15:02:52.399Z,99.99
2016-10-24T15:03:52.395Z,99.99
2016-10-24T15:04:52.389Z,99.99
2016-10-24T15:05:52.381Z,99.99
2016-10-24T15:06:52.371Z,99.99
2016-10-24T15:07:52.368Z,99.99
2016-10-24T15:08:53.660Z,99.99
2016-10-24T15:09:52.349Z,99.99
2016-10-24T15:10:52.342Z,99.99
2016-10-24T15:11:52.330Z,99.99
2016-10-24T15:12:52.320Z,99.99
2016-10-24T15:13:52.320Z,99.99
2016-10-24T15:14:52.312Z,99.99
2016-10-24T15:16:52.289Z,99.99
2016-10-24T15:17:53.266Z,99.99
2016-10-24T15:18:52.270Z,99.99
2016-10-24T15:19:52.940Z,99.99
2016-10-24T15:20:52.259Z,99.99
2016-10-24T15:21:52.652Z,99.99
2016-10-24T15:22:52.239Z,99.99
2016-10-24T15:23:52.242Z,99.99
2016-10-24T15:24:52.225Z,99.99
2016-10-24T15:25:52.216Z,99.99
2016-10-24T15:26:52.207Z,99.99
2016-10-24T15:27:52.203Z,99.99
2016-10-24T15:28:52.191Z,99.99
2016-10-24T15:29:52.181Z,99.99
2016-10-24T15:30:52.176Z,99.99
2016-10-24T15:31:52.173Z,99.99
2016-10-24T15:32:52.157Z,99.99
2016-10-24T15:33:52.148Z,99.99
2016-10-24T15:34:52.143Z,99.99
2016-10-24T15:35:52.432Z,99.99
2016-10-24T15:36:52.124Z,99.99
2016-10-24T15:37:52.128Z,99.99
2016-10-24T15:38:52.113Z,99.99
2016-10-24T15:39:52.097Z,99.99
2016-10-24T15:40:52.088Z,99.99
2016-10-24T15:41:53.278Z,99.99
2016-10-24T15:42:52.173Z,99.99
2016-10-24T15:43:52.062Z,99.99
2016-10-24T15:44:52.067Z,99.99
2016-10-24T15:45:52.047Z,99.99
2016-10-24T15:46:52.241Z,99.99
2016-10-24T15:47:52.183Z,99.99
2016-10-24T15:48:52.023Z,99.99
2016-10-24T15:49:52.016Z,99.99
2016-10-24T15:51:52.003Z,99.99
2016-10-24T15:52:52.338Z,99.99
2016-10-24T15:53:52.130Z,99.99
2016-10-24T15:54:51.973Z,99.99
2016-10-24T15:55:51.964Z,99.99
2016-10-24T15:56:51.957Z,99.99
2016-10-24T15:57:51.947Z,99.99
2016-10-24T15:58:51.934Z,99.99
2016-10-24T15:59:51.934Z,99.99
2016-10-24T16:00:51.921Z,99.99
2016-10-24T16:01:51.908Z,99.99
2016-10-24T16:02:51.906Z,99.99
2016-10-24T16:03:51.931Z,99.99
2016-10-24T16:04:51.886Z,99.99
2016-10-24T16:05:51.877Z,99.99
2016-10-24T16:06:51.867Z,99.99
2016-10-24T16:07:51.862Z,99.99
2016-10-24T16:08:51.853Z,99.99
2016-10-24T16:09:51.844Z,99.99
2016-10-24T16:10:52.128Z,99.99
2016-10-24T16:11:51.828Z,99.99
2016-10-24T16:12:51.814Z,99.99
2016-10-24T16:13:51.810Z,99.99
2016-10-24T16:14:51.804Z,99.99
2016-10-24T16:15:51.791Z,99.99
2016-10-24T16:16:51.784Z,99.99
2016-10-24T16:17:51.772Z,99.99
2016-10-24T16:18:51.803Z,99.99
2016-10-24T16:19:51.757Z,99.99
2016-10-24T16:20:51.753Z,99.99
2016-10-24T16:21:51.738Z,99.99
2016-10-24T16:22:51.730Z,99.99
2016-10-24T16:23:51.717Z,99.99
2016-10-24T16:24:51.709Z,99.99
2016-10-24T16:25:52.680Z,99.99
2016-10-24T16:26:51.694Z,99.99
2016-10-24T16:27:52.735Z,99.99
2016-10-24T16:28:51.678Z,99.99
2016-10-24T16:29:51.876Z,99.99
2016-10-24T16:30:51.764Z,99.99
2016-10-24T16:31:51.651Z,99.99
2016-10-24T16:32:51.644Z,99.99
2016-10-24T16:34:51.627Z,99.99
2016-10-24T16:35:52.758Z,99.99
2016-10-24T16:36:52.485Z,99.99
2016-10-24T16:37:51.602Z,99.99
2016-10-24T16:38:51.588Z,99.99
2016-10-24T16:39:51.582Z,99.99
2016-10-24T16:40:51.577Z,99.99
2016-10-24T16:41:51.704Z,99.99
2016-10-24T16:42:51.556Z,99.99
2016-10-24T16:43:51.546Z,99.99
2016-10-24T16:44:51.541Z,99.99
2016-10-24T16:45:51.533Z,99.99
2016-10-24T16:46:51.524Z,99.99
2016-10-24T16:47:51.515Z,99.99
2016-10-24T16:48:51.501Z,99.99
2016-10-24T16:49:51.498Z,99.99
2016-10-24T16:50:51.489Z,99.99
2016-10-24T16:51:51.481Z,99.99
2016-10-24T16:52:51.470Z,99.99
2016-10-24T16:53:51.463Z,99.99
2016-10-24T16:54:51.449Z,99.99
2016-10-24T16:55:51.446Z,99.99
2016-10-24T16:56:51.437Z,99.99
2016-10-24T16:57:51.430Z,99.99
2016-10-24T16:58:51.416Z,99.99
2016-10-24T16:59:51.960Z,99.99
2016-10-24T17:00:52.552Z,99.99
2016-10-24T17:01:51.393Z,99.99
2016-10-24T17:02:51.487Z,99.99
2016-10-24T17:03:51.375Z,99.99
2016-10-24T17:05:51.353Z,99.99
2016-10-24T17:06:51.344Z,99.99
2016-10-24T17:07:51.494Z,99.99
2016-10-24T17:08:51.522Z,99.99
2016-10-24T17:09:51.325Z,99.99
2016-10-24T17:10:51.312Z,99.99
2016-10-24T17:11:51.307Z,99.99
2016-10-24T17:12:51.493Z,99.99
2016-10-24T17:13:51.292Z,99.99
2016-10-24T17:14:51.429Z,99.99
2016-10-24T17:15:51.271Z,99.99
2016-10-24T17:16:51.266Z,99.99
2016-10-24T17:17:51.261Z,99.99
2016-10-24T17:18:51.248Z,99.99
2016-10-24T17:19:51.235Z,99.99
2016-10-24T17:20:51.232Z,99.99
2016-10-24T17:21:51.221Z,99.99
2016-10-24T17:22:51.206Z,99.99
2016-10-24T17:23:51.198Z,99.99
2016-10-24T17:24:51.190Z,99.99
2016-10-24T17:25:51.184Z,99.99
2016-10-24T17:26:51.175Z,99.99
2016-10-24T17:27:51.168Z,99.99
2016-10-24T17:28:51.163Z,99.99
2016-10-24T17:29:51.147Z,99.99
2016-10-24T17:30:51.139Z,99.99
2016-10-24T17:31:51.139Z,99.99
2016-10-24T17:32:51.127Z,99.99
2016-10-24T17:33:51.113Z,99.99
2016-10-24T17:34:51.408Z,99.99
2016-10-24T17:35:51.098Z,99.99
2016-10-24T17:36:51.192Z,99.99
2016-10-24T17:37:51.083Z,99.99
2016-10-24T17:38:51.073Z,99.99
2016-10-24T17:39:51.064Z,99.99
2016-10-24T17:40:51.057Z,99.99
2016-10-24T17:41:51.049Z,99.99
2016-10-24T17:42:51.037Z,99.99
2016-10-24T17:43:52.040Z,99.99
2016-10-24T17:44:51.016Z,99.99
2016-10-24T17:45:51.010Z,99.99
2016-10-24T17:46:50.999Z,99.99
2016-10-24T17:47:51.002Z,99.99
2016-10-24T17:48:50.988Z,99.99
2016-10-24T17:49:50.978Z,99.99
2016-10-24T17:50:50.964Z,99.99
2016-10-24T17:51:50.960Z,99.99
2016-10-24T17:52:50.957Z,99.99
2016-10-24T17:54:50.933Z,99.99
2016-10-24T17:55:50.925Z,99.99
2016-10-24T17:56:50.916Z,99.99
2016-10-24T17:57:51.534Z,99.99
2016-10-24T17:58:50.897Z,99.99
2016-10-24T17:59:50.886Z,99.99
2016-10-24T18:00:50.880Z,99.99
2016-10-24T18:01:50.876Z,99.99
2016-10-24T18:02:50.868Z,99.99
2016-10-24T18:03:50.856Z,99.99
2016-10-24T18:04:50.848Z,99.99
2016-10-24T18:05:50.840Z,99.99
2016-10-24T18:06:50.829Z,99.99
2016-10-24T18:07:50.820Z,99.99
2016-10-24T18:08:50.811Z,99.99
2016-10-24T18:09:50.805Z,99.99
2016-10-24T18:10:50.794Z,99.99
2016-10-24T18:11:50.785Z,99.99
2016-10-24T18:12:50.817Z,99.99
2016-10-24T18:13:50.769Z,99.99
2016-10-24T18:14:50.759Z,99.99
2016-10-24T18:15:50.786Z,99.99
2016-10-24T18:16:50.746Z,99.99
2016-10-24T18:17:50.742Z,99.99
2016-10-24T18:18:50.724Z,99.99
2016-10-24T18:19:50.969Z,99.99
2016-10-24T18:20:50.711Z,99.99
2016-10-24T18:21:51.307Z,99.99
2016-10-24T18:22:51.093Z,99.99
2016-10-24T18:23:50.685Z,99.99
2016-10-24T18:24:50.871Z,99.99
2016-10-24T18:25:50.663Z,99.99
2016-10-24T18:26:50.658Z,99.99
2016-10-24T18:27:50.751Z,99.99
2016-10-24T18:28:50.893Z,99.99
2016-10-24T18:29:50.736Z,99.99
2016-10-24T18:30:50.727Z,99.99
2016-10-24T18:31:50.614Z,99.99
2016-10-24T18:32:50.635Z,99.99
2016-10-24T18:33:50.597Z,99.99
2016-10-24T18:34:50.591Z,99.99
2016-10-24T18:35:50.579Z,99.99
2016-10-24T18:36:50.572Z,99.99
2016-10-24T18:37:50.560Z,99.99
2016-10-24T18:38:50.558Z,99.99
2016-10-24T18:39:50.542Z,99.99
2016-10-24T18:40:50.536Z,99.99
2016-10-24T18:41:50.529Z,99.99
2016-10-24T18:42:50.520Z,99.99
2016-10-24T18:43:50.509Z,99.99
2016-10-24T18:44:50.502Z,99.99
2016-10-24T18:45:50.497Z,99.99
2016-10-24T18:46:50.488Z,99.99
2016-10-24T18:47:50.472Z,99.99
2016-10-24T18:48:50.466Z,99.99
2016-10-24T18:49:50.463Z,99.99
2016-10-24T18:50:50.451Z,99.99
2016-10-24T18:51:50.440Z,99.99
2016-10-24T18:52:50.436Z,99.99
2016-10-24T18:53:50.457Z,99.99
2016-10-24T18:54:50.420Z,99.99
2016-10-24T18:55:50.405Z,99.99
2016-10-24T18:56:50.401Z,99.99
2016-10-24T18:57:50.389Z,99.99
2016-10-24T18:58:50.377Z,99.99
2016-10-24T18:59:50.378Z,99.99
2016-10-24T19:00:50.364Z,99.99
2016-10-24T19:01:50.783Z,99.99
2016-10-24T19:02:50.350Z,99.99
2016-10-24T19:03:51.646Z,99.99
2016-10-24T19:04:50.336Z,99.99
2016-10-24T19:05:50.321Z,99.99
2016-10-24T19:06:50.310Z,99.99
2016-10-24T19:07:50.309Z,99.99
2016-10-24T19:08:50.297Z,99.99
2016-10-24T19:09:50.288Z,99.99
2016-10-24T19:10:50.280Z,99.99
2016-10-24T19:11:50.269Z,99.99
2016-10-24T19:12:50.775Z,99.99
2016-10-24T19:13:50.254Z,99.99
2016-10-24T19:14:50.248Z,99.99
2016-10-24T19:15:50.241Z,99.99
2016-10-24T19:16:50.232Z,99.99
2016-10-24T19:17:50.222Z,99.99
2016-10-24T19:18:50.510Z,99.99
2016-10-24T19:19:50.204Z,99.99
2016-10-24T19:20:50.198Z,99.99
2016-10-24T19:21:50.185Z,99.99
2016-10-24T19:22:50.174Z,99.99
2016-10-24T19:23:50.168Z,99.99
2016-10-24T19:24:50.157Z,99.99
2016-10-24T19:25:50.148Z,99.99
2016-10-24T19:26:50.144Z,99.99
2016-10-24T19:27:50.135Z,99.99
2016-10-24T19:28:50.124Z,99.99
2016-10-24T19:29:50.117Z,99.99
2016-10-24T19:30:50.110Z,99.99
2016-10-24T19:31:50.096Z,99.99
2016-10-24T19:32:50.093Z,99.99
2016-10-24T19:33:50.084Z,99.99
2016-10-24T19:34:50.074Z,99.99
2016-10-24T19:35:50.065Z,99.99
2016-10-24T19:36:50.059Z,99.99
2016-10-24T19:37:50.052Z,99.99
2016-10-24T19:38:50.083Z,99.99
2016-10-24T19:39:50.036Z,99.99
2016-10-24T19:40:50.025Z,99.99
2016-10-24T19:41:50.021Z,99.99
2016-10-24T19:42:50.007Z,99.99
2016-10-24T19:43:50.001Z,99.99
2016-10-24T19:44:49.994Z,99.99
2016-10-24T19:45:50.584Z,99.99
2016-10-24T19:46:49.975Z,99.99
2016-10-24T19:47:49.966Z,99.99
2016-10-24T19:48:49.957Z,99.99
2016-10-24T19:49:50.554Z,99.99
2016-10-24T19:50:49.945Z,99.99
2016-10-24T19:51:49.932Z,99.99
2016-10-24T19:52:49.928Z,99.99
2016-10-24T19:53:49.921Z,99.99
2016-10-24T19:54:49.906Z,99.99
2016-10-24T19:55:49.904Z,99.99
2016-10-24T19:56:49.888Z,99.99
2016-10-24T19:57:49.886Z,99.99
2016-10-24T19:58:49.877Z,99.99
2016-10-24T19:59:49.871Z,99.99
2016-10-24T20:00:49.863Z,99.99
2016-10-24T20:01:49.849Z,99.99
2016-10-24T20:02:49.841Z,99.99
2016-10-24T20:03:50.134Z,99.99
2016-10-24T20:04:49.825Z,99.99
2016-10-24T20:05:49.813Z,99.99
2016-10-24T20:06:49.808Z,99.99
2016-10-24T20:07:49.799Z,99.99
2016-10-24T20:08:49.794Z,99.99
2016-10-24T20:09:49.783Z,99.99
2016-10-24T20:10:49.772Z,99.99
2016-10-24T20:11:49.767Z,99.99
2016-10-24T20:12:49.756Z,99.99
2016-10-24T20:13:49.749Z,99.99
2016-10-24T20:14:49.749Z,99.99
2016-10-24T20:15:49.737Z,99.99
2016-10-24T20:16:49.719Z,99.99
2016-10-24T20:17:49.717Z,99.99
2016-10-24T20:18:49.705Z,99.99
2016-10-24T20:19:49.772Z,99.99
2016-10-24T20:20:50.283Z,99.99
2016-10-24T20:21:50.707Z,99.99
2016-10-24T20:22:49.698Z,99.99
2016-10-24T20:23:50.472Z,99.99
2016-10-24T20:24:49.661Z,99.99
2016-10-24T20:25:50.057Z,99.99
2016-10-24T20:26:49.639Z,99.99
2016-10-24T20:27:49.635Z,99.99
2016-10-24T20:29:49.619Z,99.99
2016-10-24T20:30:49.984Z,99.99
2016-10-24T20:31:49.601Z,99.99
2016-10-24T20:32:49.591Z,99.99
2016-10-24T20:33:49.577Z,99.99
2016-10-24T20:34:49.609Z,99.99
2016-10-24T20:35:49.568Z,99.99
2016-10-24T20:36:49.557Z,99.99
2016-10-24T20:37:49.548Z,99.99
2016-10-24T20:38:49.539Z,99.99
2016-10-24T20:39:49.535Z,99.99
2016-10-24T20:40:49.521Z,99.99
2016-10-24T20:41:49.517Z,99.99
2016-10-24T20:42:49.510Z,99.99
2016-10-24T20:43:49.496Z,99.99
2016-10-24T20:44:49.489Z,99.99
2016-10-24T20:45:49.485Z,99.99
2016-10-24T20:46:49.486Z,99.99
2016-10-24T20:47:49.466Z,99.99
2016-10-24T20:48:49.454Z,99.99
2016-10-24T20:49:49.447Z,99.99
2016-10-24T20:50:49.439Z,99.99
2016-10-24T20:51:49.435Z,99.99
2016-10-24T20:52:49.423Z,99.99
2016-10-24T20:53:49.416Z,99.99
2016-10-24T20:54:49.410Z,99.99
2016-10-24T20:55:49.790Z,99.99
2016-10-24T20:56:49.392Z,99.99
2016-10-24T20:57:49.383Z,99.99
2016-10-24T20:58:49.380Z,99.99
2016-10-24T20:59:49.464Z,99.99
2016-10-24T21:00:49.357Z,99.99
2016-10-24T21:01:49.349Z,99.99
2016-10-24T21:02:49.344Z,99.99
2016-10-24T21:03:49.836Z,99.99
2016-10-24T21:05:49.359Z,99.99
2016-10-24T21:06:49.414Z,99.99
2016-10-24T21:07:49.305Z,99.99
2016-10-24T21:08:49.292Z,99.99
2016-10-24T21:09:49.335Z,99.99
2016-10-24T21:10:49.574Z,99.99
2016-10-24T21:11:49.270Z,99.99
2016-10-24T21:12:49.259Z,99.99
2016-10-24T21:13:49.256Z,99.99
2016-10-24T21:14:49.284Z,99.99
2016-10-24T21:15:49.241Z,99.99
2016-10-24T21:16:49.237Z,99.99
2016-10-24T21:17:49.217Z,99.99
2016-10-24T21:18:49.216Z,99.99
2016-10-24T21:19:49.207Z,99.99
2016-10-24T21:20:49.198Z,99.99
2016-10-24T21:21:49.191Z,99.99
2016-10-24T21:22:49.182Z,99.99
2016-10-24T21:23:49.179Z,99.99
2016-10-24T21:24:49.170Z,99.99
2016-10-24T21:25:49.160Z,99.99
2016-10-24T21:26:49.151Z,99.99
2016-10-24T21:27:49.141Z,99.99
2016-10-24T21:28:49.134Z,99.99
2016-10-24T21:29:49.123Z,99.99
2016-10-24T21:30:49.117Z,99.99
2016-10-24T21:31:49.107Z,99.99
2016-10-24T21:32:49.100Z,99.99
2016-10-24T21:33:49.095Z,99.99
2016-10-24T21:34:49.083Z,99.99
2016-10-24T21:35:49.080Z,99.99
2016-10-24T21:36:49.067Z,99.99
2016-10-24T21:37:49.068Z,99.99
2016-10-24T21:38:49.546Z,99.99
2016-10-24T21:39:49.042Z,99.99
2016-10-24T21:40:49.046Z,99.99
2016-10-24T21:41:49.594Z,99.99
2016-10-24T21:42:49.019Z,99.99
2016-10-24T21:43:49.013Z,99.99
2016-10-24T21:44:49.004Z,99.99
2016-10-24T21:45:48.997Z,99.99
2016-10-24T21:46:49.158Z,99.99
2016-10-24T21:47:48.981Z,99.99
2016-10-24T21:48:49.475Z,99.99
2016-10-24T21:49:49.862Z,99.99
2016-10-24T21:50:49.159Z,99.99
2016-10-24T21:51:48.945Z,99.99
2016-10-24T21:52:49.327Z,99.99
2016-10-24T21:53:48.935Z,99.99
2016-10-24T21:54:48.927Z,99.99
2016-10-24T21:55:48.917Z,99.99
2016-10-24T21:56:48.909Z,99.99
2016-10-24T21:57:48.895Z,99.99
2016-10-24T21:58:48.897Z,99.99
2016-10-24T21:59:48.880Z,99.99
2016-10-24T22:00:48.878Z,99.99
2016-10-24T22:01:48.865Z,99.99
2016-10-24T22:02:48.861Z,99.99
2016-10-24T22:03:48.849Z,99.99
2016-10-24T22:04:48.849Z,99.99
2016-10-24T22:05:48.836Z,99.99
2016-10-24T22:06:48.828Z,99.99
2016-10-24T22:07:48.821Z,99.99
2016-10-24T22:08:48.806Z,99.99
2016-10-24T22:09:48.798Z,99.99
2016-10-24T22:10:48.799Z,99.99
2016-10-24T22:11:48.782Z,99.99
2016-10-24T22:12:48.773Z,99.99
2016-10-24T22:13:48.871Z,99.99
2016-10-24T22:14:49.664Z,99.99
2016-10-24T22:15:48.902Z,99.99
2016-10-24T22:16:48.893Z,99.99
2016-10-24T22:17:48.738Z,99.99
2016-10-24T22:18:48.726Z,99.99
2016-10-24T22:19:48.719Z,99.99
2016-10-24T22:20:48.714Z,99.99
2016-10-24T22:21:48.702Z,99.99
2016-10-24T22:22:49.798Z,99.99
2016-10-24T22:23:49.589Z,99.99
2016-10-24T22:24:48.678Z,99.99
2016-10-24T22:25:49.223Z,99.99
2016-10-24T22:26:49.219Z,99.99
2016-10-24T22:27:48.659Z,99.99
2016-10-24T22:28:48.646Z,99.99
2016-10-24T22:29:48.643Z,99.99
2016-10-24T22:30:48.629Z,99.99
2016-10-24T22:31:48.620Z,99.99
2016-10-24T22:32:48.613Z,99.99
2016-10-24T22:33:48.608Z,99.99